Time;durP1;ratioP1;P1;durP2;ratioP2;P2;SDS_P1;SDS_P2;PMS_P1;PMS_P2;Temp;Humidity;BMP_temperature;BMP_pressure;BME280_temperature;BME280_humidity;BME280_pressure;Samples;Min_cycle;Max_cycle;Signal;HPM_P1;HPM_P2
2022/02/27 00:02:21;;;;;;;17.23;4.13;;;1.90;99.90;;;;;;5036824;28;20060;-72
2022/02/27 00:04:46;;;;;;;13.13;4.43;;;1.90;99.90;;;;;;5036519;28;20101;-73
2022/02/27 00:07:12;;;;;;;18.92;4.18;;;1.80;99.90;;;;;;5036577;28;20101;-73
2022/02/27 00:09:37;;;;;;;20.63;5.22;;;1.90;99.90;;;;;;5036682;28;20117;-73
2022/02/27 00:12:03;;;;;;;20.90;3.80;;;1.90;99.90;;;;;;5035113;28;20026;-73
2022/02/27 00:14:29;;;;;;;16.83;3.78;;;1.90;99.90;;;;;;5036735;28;20033;-73
2022/02/27 00:16:54;;;;;;;15.40;4.22;;;1.90;99.90;;;;;;5036714;28;20483;-73
2022/02/27 00:19:23;;;;;;;16.40;3.38;;;1.90;99.90;;;;;;5036706;28;20025;-73
2022/02/27 00:21:50;;;;;;;10.73;3.45;;;1.90;99.90;;;;;;5036269;28;20049;-73
2022/02/27 00:24:16;;;;;;;16.75;3.10;;;1.90;99.90;;;;;;5036216;28;20030;-72
2022/02/27 00:26:42;;;;;;;18.77;4.20;;;1.90;99.90;;;;;;5036174;28;20471;-72
2022/02/27 00:29:07;;;;;;;11.90;3.42;;;1.80;99.90;;;;;;5036336;28;20033;-72
2022/02/27 00:31:33;;;;;;;13.50;2.80;;;1.80;99.90;;;;;;5036411;28;20109;-72
2022/02/27 00:33:58;;;;;;;20.67;4.05;;;1.80;99.90;;;;;;5035918;28;20032;-72
2022/02/27 00:36:24;;;;;;;19.25;3.75;;;1.80;99.90;;;;;;5034555;28;20363;-72
2022/02/27 00:38:49;;;;;;;21.83;5.20;;;1.70;99.90;;;;;;5036317;28;20485;-72
2022/02/27 00:41:15;;;;;;;14.77;3.38;;;1.70;99.90;;;;;;5036414;28;20075;-73
2022/02/27 00:43:40;;;;;;;20.45;3.45;;;1.60;99.90;;;;;;5034200;28;20056;-73
2022/02/27 00:46:06;;;;;;;19.00;3.72;;;1.60;99.90;;;;;;5036062;28;20060;-72
2022/02/27 00:48:33;;;;;;;15.10;3.47;;;1.60;99.90;;;;;;5035679;28;20029;-72
2022/02/27 00:50:59;;;;;;;17.50;2.83;;;1.60;99.90;;;;;;5035520;28;20030;-73
2022/02/27 00:53:24;;;;;;;24.42;5.35;;;1.60;99.90;;;;;;5035663;28;20105;-72
2022/02/27 00:55:50;;;;;;;20.60;3.72;;;1.50;99.90;;;;;;5035885;28;20096;-72
2022/02/27 00:58:16;;;;;;;21.40;4.25;;;1.50;99.90;;;;;;5034372;28;20033;-72
2022/02/27 01:00:41;;;;;;;19.30;4.10;;;1.50;99.90;;;;;;5035720;28;20033;-72
2022/02/27 01:03:07;;;;;;;22.17;5.57;;;1.50;99.90;;;;;;5034245;28;20014;-72
2022/02/27 01:05:32;;;;;;;19.00;3.70;;;1.50;99.90;;;;;;5035710;28;20029;-72
2022/02/27 01:07:58;;;;;;;15.15;3.45;;;1.40;99.90;;;;;;5035425;28;20052;-72
2022/02/27 01:10:24;;;;;;;14.50;4.13;;;1.40;99.90;;;;;;5035647;28;20124;-72
2022/02/27 01:12:49;;;;;;;24.80;3.83;;;1.30;99.90;;;;;;5034118;28;20108;-72
2022/02/27 01:15:16;;;;;;;20.15;3.80;;;1.40;99.90;;;;;;5035968;28;20025;-73
2022/02/27 01:17:41;;;;;;;18.90;3.67;;;1.30;99.90;;;;;;5035130;28;20029;-72
2022/02/27 01:20:07;;;;;;;12.27;2.83;;;1.30;99.90;;;;;;5033978;28;20386;-72
2022/02/27 01:22:33;;;;;;;16.98;4.07;;;1.30;99.90;;;;;;5034394;28;20017;-72
2022/02/27 01:24:59;;;;;;;16.33;3.45;;;1.20;99.90;;;;;;5033850;28;20030;-72
2022/02/27 01:27:25;;;;;;;17.17;3.30;;;1.20;99.90;;;;;;5034971;28;20364;-73
2022/02/27 01:29:50;;;;;;;22.15;4.88;;;1.10;99.90;;;;;;5038567;28;20040;-73
2022/02/27 01:32:16;;;;;;;17.40;4.72;;;1.10;99.90;;;;;;5035272;28;20026;-73
2022/02/27 01:34:41;;;;;;;18.25;4.45;;;1.10;99.90;;;;;;5034906;28;20071;-72
2022/02/27 01:37:07;;;;;;;14.48;3.75;;;1.10;99.90;;;;;;5034857;28;20032;-73
2022/02/27 01:39:33;;;;;;;23.20;4.88;;;1.40;99.90;;;;;;5034979;28;20475;-73
2022/02/27 01:41:58;;;;;;;15.40;3.50;;;1.10;99.90;;;;;;5033783;28;20021;-73
2022/02/27 01:44:24;;;;;;;20.05;4.55;;;1.00;99.90;;;;;;5034838;28;20371;-72
2022/02/27 01:47:07;;;;;;;16.13;4.05;;;1.00;99.90;;;;;;5034686;28;20087;-72
2022/02/27 01:49:33;;;;;;;16.00;4.22;;;1.00;99.90;;;;;;5034558;28;20029;-72
2022/02/27 01:51:58;;;;;;;16.55;4.30;;;1.00;99.90;;;;;;5034954;28;20029;-72
2022/02/27 01:54:24;;;;;;;15.70;4.60;;;1.00;99.90;;;;;;5033824;28;20025;-72
2022/02/27 01:56:50;;;;;;;20.98;4.22;;;1.00;99.90;;;;;;5033042;28;20487;-72
2022/02/27 01:59:16;;;;;;;17.00;3.85;;;1.00;99.90;;;;;;5035074;28;20025;-72
2022/02/27 02:01:43;;;;;;;18.30;4.38;;;0.90;99.90;;;;;;5034443;28;20383;-72
2022/02/27 02:04:09;;;;;;;16.73;4.82;;;0.90;99.90;;;;;;5034737;28;20076;-72
2022/02/27 02:06:38;;;;;;;16.80;3.60;;;0.90;99.90;;;;;;5034170;28;20422;-72
2022/02/27 02:09:04;;;;;;;;;;;0.90;99.90;;;;;;5034743;28;20431;-72
2022/02/27 02:11:29;;;;;;;22.30;4.97;;;0.90;99.90;;;;;;5034282;28;19912;-73
2022/02/27 02:13:55;;;;;;;16.90;3.75;;;0.80;99.90;;;;;;5034570;28;20033;-72
2022/02/27 02:16:21;;;;;;;19.75;3.45;;;0.90;99.90;;;;;;5034736;28;20102;-72
2022/02/27 02:18:46;;;;;;;14.25;4.03;;;0.80;99.90;;;;;;5032614;28;20474;-72
2022/02/27 02:21:12;;;;;;;14.68;3.08;;;0.80;99.90;;;;;;5034191;28;20022;-72
2022/02/27 02:23:37;;;;;;;12.80;3.63;;;0.80;99.90;;;;;;5033807;28;20463;-72
2022/02/27 02:26:04;;;;;;;15.10;3.33;;;0.70;99.90;;;;;;5032556;28;20025;-72
2022/02/27 02:28:30;;;;;;;11.68;3.28;;;0.70;99.90;;;;;;5033756;28;20017;-72
2022/02/27 02:30:55;;;;;;;16.35;3.88;;;0.70;99.90;;;;;;5034530;28;20030;-72
2022/02/27 02:33:36;;;;;;;19.23;3.83;;;0.70;99.90;;;;;;5033916;28;20022;-72
2022/02/27 02:36:03;;;;;;;17.50;3.15;;;0.70;99.90;;;;;;5033750;28;20033;-72
2022/02/27 02:38:28;;;;;;;12.43;3.30;;;0.70;99.90;;;;;;5033657;28;20076;-73
2022/02/27 02:40:54;;;;;;;12.10;3.08;;;0.70;99.90;;;;;;5033591;28;20022;-72
2022/02/27 02:43:19;;;;;;;18.17;3.22;;;0.70;99.90;;;;;;5033831;28;20033;-73
2022/02/27 02:45:45;;;;;;;12.48;3.33;;;0.70;99.90;;;;;;5033469;28;20040;-72
2022/02/27 02:48:10;;;;;;;19.13;3.85;;;0.60;99.90;;;;;;5033619;28;20025;-73
2022/02/27 02:50:36;;;;;;;18.67;3.50;;;0.60;99.90;;;;;;5032350;28;20036;-73
2022/02/27 02:53:02;;;;;;;21.20;3.33;;;0.60;99.90;;;;;;5033930;28;20375;-72
2022/02/27 02:55:27;;;;;;;15.60;3.67;;;0.60;99.90;;;;;;5033384;28;20074;-72
2022/02/27 02:57:53;;;;;;;17.35;3.90;;;0.50;99.90;;;;;;5032159;28;20024;-73
2022/02/27 03:00:19;;;;;;;13.45;4.00;;;0.50;99.90;;;;;;5033692;28;20071;-73
2022/02/27 03:02:48;;;;;;;11.43;2.97;;;0.50;99.90;;;;;;5032058;28;20108;-72
2022/02/27 03:05:14;;;;;;;14.95;3.10;;;0.50;99.90;;;;;;5033375;28;20107;-74
2022/02/27 03:07:40;;;;;;;15.75;4.13;;;0.50;99.90;;;;;;5031957;28;20033;-75
2022/02/27 03:10:07;;;;;;;15.25;3.03;;;0.50;99.90;;;;;;5032016;28;20021;-75
2022/02/27 03:12:33;;;;;;;10.25;3.17;;;0.50;99.90;;;;;;5031923;28;20390;-74
2022/02/27 03:14:59;;;;;;;16.42;3.08;;;0.50;99.90;;;;;;5032193;28;20100;-74
2022/02/27 03:17:25;;;;;;;12.88;3.35;;;0.40;99.90;;;;;;5033099;28;20025;-73
2022/02/27 03:19:50;;;;;;;17.10;4.43;;;0.40;99.90;;;;;;5033760;28;20379;-73
2022/02/27 03:22:16;;;;;;;11.52;3.28;;;0.50;99.90;;;;;;5031831;28;20024;-74
2022/02/27 03:24:42;;;;;;;15.15;3.85;;;0.40;99.90;;;;;;5033377;28;20105;-74
2022/02/27 03:27:07;;;;;;;15.45;3.08;;;0.40;99.90;;;;;;5033043;28;20028;-74
2022/02/27 03:29:33;;;;;;;19.23;5.28;;;0.40;99.90;;;;;;5032009;28;20083;-74
2022/02/27 03:31:59;;;;;;;17.02;2.95;;;0.40;99.90;;;;;;5033381;28;20033;-74
2022/02/27 03:34:25;;;;;;;14.60;2.85;;;0.30;99.90;;;;;;5052183;28;20092;-74
2022/02/27 03:36:51;;;;;;;11.50;2.65;;;0.30;99.90;;;;;;5060975;28;20025;-74
2022/02/27 03:39:16;;;;;;;18.98;4.60;;;0.40;99.90;;;;;;5072874;28;20033;-74
2022/02/27 03:41:42;;;;;;;19.40;4.70;;;0.40;99.90;;;;;;5071156;28;20020;-74
2022/02/27 03:44:08;;;;;;;15.27;3.83;;;0.40;99.90;;;;;;5070268;28;20020;-74
2022/02/27 03:46:34;;;;;;;10.25;3.35;;;0.40;99.90;;;;;;5072982;28;20021;-74
2022/02/27 03:49:04;;;;;;;14.55;3.13;;;0.40;99.90;;;;;;5071888;28;20496;-74
2022/02/27 03:51:34;;;;;;;12.98;3.72;;;0.40;99.90;;;;;;5071730;28;20017;-74
2022/02/27 03:54:04;;;;;;;16.83;3.42;;;0.30;99.90;;;;;;5072310;28;20405;-74
2022/02/27 03:56:29;;;;;;;16.38;3.67;;;0.40;99.90;;;;;;5071978;28;20029;-75
2022/02/27 03:58:55;;;;;;;18.70;4.55;;;0.30;99.90;;;;;;5071579;28;20021;-74
2022/02/27 04:01:21;;;;;;;12.48;3.28;;;0.40;99.90;;;;;;5071757;28;20070;-74
2022/02/27 04:03:46;;;;;;;10.52;3.22;;;0.40;99.90;;;;;;5072967;28;20021;-74
2022/02/27 04:06:12;;;;;;;9.10;2.70;;;0.30;99.90;;;;;;5073093;28;20041;-74
2022/02/27 04:08:39;;;;;;;11.40;3.03;;;0.40;99.90;;;;;;5071605;28;20448;-74
2022/02/27 04:11:05;;;;;;;14.30;3.17;;;0.40;99.90;;;;;;5073263;28;20020;-75
2022/02/27 04:13:31;;;;;;;15.68;3.30;;;0.30;99.90;;;;;;5072803;28;20028;-74
2022/02/27 04:15:56;;;;;;;15.82;3.97;;;0.30;99.90;;;;;;5072644;28;20032;-74
2022/02/27 04:18:22;;;;;;;13.13;3.28;;;0.30;99.90;;;;;;5073941;28;20025;-74
2022/02/27 04:20:47;;;;;;;18.95;4.18;;;0.30;99.90;;;;;;5076356;28;20052;-74
2022/02/27 04:23:13;;;;;;;15.18;3.13;;;0.30;99.90;;;;;;5074931;28;20020;-75
2022/02/27 04:25:38;;;;;;;13.60;3.38;;;0.30;99.90;;;;;;5076167;28;20131;-74
2022/02/27 04:28:04;;;;;;;18.00;3.78;;;0.20;99.90;;;;;;5076285;28;20104;-75
2022/02/27 04:30:30;;;;;;;7.65;2.53;;;0.20;99.90;;;;;;5076396;28;20473;-75
2022/02/27 04:32:55;;;;;;;12.52;3.75;;;0.20;99.90;;;;;;5076118;28;20078;-75
2022/02/27 04:35:21;;;;;;;14.82;3.95;;;0.20;99.90;;;;;;5075877;28;20035;-74
2022/02/27 04:37:47;;;;;;;11.07;3.08;;;0.20;99.90;;;;;;5076245;28;20039;-74
2022/02/27 04:40:13;;;;;;;17.13;3.28;;;0.20;99.90;;;;;;5075887;28;20116;-75
2022/02/27 04:42:39;;;;;;;20.55;3.25;;;0.20;99.90;;;;;;5075925;28;20023;-74
2022/02/27 04:45:07;;;;;;;8.70;3.25;;;0.20;99.90;;;;;;5074639;28;20525;-74
2022/02/27 04:47:33;;;;;;;16.27;2.60;;;0.20;99.90;;;;;;5076091;28;20021;-74
2022/02/27 04:49:58;;;;;;;13.38;2.97;;;0.30;99.90;;;;;;5074530;28;20398;-74
2022/02/27 04:52:24;;;;;;;13.48;2.72;;;0.30;99.90;;;;;;5074381;28;20013;-74
2022/02/27 04:54:49;;;;;;;8.23;2.15;;;0.30;99.90;;;;;;5074372;28;20027;-74
2022/02/27 04:57:15;;;;;;;11.85;3.03;;;0.30;99.90;;;;;;5075446;28;20494;-74
2022/02/27 04:59:41;;;;;;;16.08;2.70;;;0.30;99.90;;;;;;5076085;28;20060;-74
2022/02/27 05:02:06;;;;;;;11.40;3.28;;;0.30;99.90;;;;;;5074169;28;20482;-74
2022/02/27 05:04:35;;;;;;;11.90;2.58;;;0.30;99.90;;;;;;5075706;28;20105;-74
2022/02/27 05:07:05;;;;;;;12.30;2.80;;;0.30;99.90;;;;;;5075442;28;20023;-74
2022/02/27 05:09:31;;;;;;;9.60;2.70;;;0.20;99.90;;;;;;5075980;28;20032;-74
2022/02/27 05:11:57;;;;;;;9.30;2.63;;;0.20;99.90;;;;;;5075236;28;20048;-74
2022/02/27 05:14:23;;;;;;;10.85;3.67;;;0.20;99.90;;;;;;5075279;28;20485;-74
2022/02/27 05:16:48;;;;;;;8.77;3.47;;;0.20;99.90;;;;;;5075703;28;20027;-74
2022/02/27 05:19:14;;;;;;;13.32;3.13;;;0.10;99.90;;;;;;5075521;28;20028;-74
2022/02/27 05:21:40;;;;;;;11.88;2.63;;;0.10;99.90;;;;;;5073824;28;20027;-74
2022/02/27 05:24:06;;;;;;;12.13;2.55;;;0.10;99.90;;;;;;5073753;28;20072;-74
2022/02/27 05:26:32;;;;;;;11.85;2.80;;;0.10;99.90;;;;;;5075000;28;20021;-74
2022/02/27 05:28:57;;;;;;;18.92;3.42;;;0.00;99.90;;;;;;5073044;28;20381;-73
2022/02/27 05:31:24;;;;;;;15.43;4.10;;;0.00;99.90;;;;;;5074896;28;20099;-73
2022/02/27 05:33:50;;;;;;;9.80;2.78;;;0.10;99.90;;;;;;5074924;28;20070;-73
2022/02/27 05:36:16;;;;;;;16.27;3.20;;;0.00;99.90;;;;;;5073457;28;20028;-74
2022/02/27 05:38:41;;;;;;;14.20;2.72;;;0.00;99.90;;;;;;5074825;28;20027;-74
2022/02/27 05:41:07;;;;;;;15.95;3.65;;;-0.10;99.90;;;;;;5074853;28;20032;-74
2022/02/27 05:43:33;;;;;;;12.63;3.53;;;-0.10;99.90;;;;;;5073465;28;20056;-74
2022/02/27 05:45:58;;;;;;;10.35;3.15;;;-0.10;99.90;;;;;;5073343;28;20060;-74
2022/02/27 05:48:24;;;;;;;7.40;2.28;;;-0.10;99.90;;;;;;5073272;28;20028;-74
2022/02/27 05:50:50;;;;;;;12.85;2.88;;;-0.10;99.90;;;;;;5074818;28;20028;-73
2022/02/27 05:53:15;;;;;;;12.82;2.88;;;-0.10;99.90;;;;;;5074407;28;20151;-74
2022/02/27 05:55:41;;;;;;;8.20;2.45;;;-0.10;99.90;;;;;;5073005;28;20385;-73
2022/02/27 05:58:06;;;;;;;8.82;2.78;;;-0.10;99.90;;;;;;5074351;28;20438;-73
2022/02/27 06:00:32;;;;;;;12.18;2.38;;;-0.10;99.90;;;;;;5074255;28;20099;-74
2022/02/27 06:02:58;;;;;;;15.68;2.95;;;-0.10;99.90;;;;;;5074290;28;20056;-73
2022/02/27 06:05:24;;;;;;;7.80;1.83;;;-0.10;99.90;;;;;;5074354;28;20017;-73
2022/02/27 06:07:49;;;;;;;11.35;2.55;;;-0.10;99.90;;;;;;5074156;28;20028;-73
2022/02/27 06:10:15;;;;;;;6.22;1.95;;;-0.10;99.90;;;;;;5074409;28;20498;-73
2022/02/27 06:12:48;;;;;;;11.27;2.40;;;-0.10;99.90;;;;;;5074607;28;20035;-74
2022/02/27 06:15:14;;;;;;;18.77;3.08;;;-0.10;99.90;;;;;;5074320;28;20070;-73
2022/02/27 06:17:40;;;;;;;13.07;2.80;;;-0.10;99.90;;;;;;5074020;28;20028;-73
2022/02/27 06:20:06;;;;;;;15.75;3.47;;;0.00;99.90;;;;;;5072691;28;20035;-74
2022/02/27 06:22:32;;;;;;;9.73;2.70;;;0.00;99.90;;;;;;5072764;28;20021;-73
2022/02/27 06:24:58;;;;;;;7.80;3.17;;;0.00;99.90;;;;;;5074204;28;20017;-73
2022/02/27 06:27:24;;;;;;;9.38;2.42;;;0.00;99.90;;;;;;5074271;28;20123;-73
2022/02/27 06:29:49;;;;;;;8.40;2.55;;;0.00;99.90;;;;;;5073723;28;20028;-73
2022/02/27 06:32:15;;;;;;;9.50;1.90;;;0.00;99.90;;;;;;5073790;28;20025;-73
2022/02/27 06:34:40;;;;;;;11.45;2.67;;;0.00;99.90;;;;;;5072244;28;20059;-73
2022/02/27 06:37:06;;;;;;;9.68;3.05;;;0.00;99.90;;;;;;5072589;28;20074;-74
2022/02/27 06:39:31;;;;;;;13.57;3.00;;;0.00;99.90;;;;;;5072253;28;20020;-74
2022/02/27 06:41:58;;;;;;;12.48;2.53;;;0.10;99.90;;;;;;5073496;28;20028;-74
2022/02/27 06:44:23;;;;;;;10.35;2.30;;;0.10;99.90;;;;;;5073572;28;20082;-74
2022/02/27 06:46:49;;;;;;;8.52;2.35;;;0.10;99.90;;;;;;5073908;28;20013;-73
2022/02/27 06:49:14;;;;;;;7.03;2.05;;;0.10;99.90;;;;;;5072321;28;20115;-74
2022/02/27 06:51:40;;;;;;;11.57;2.42;;;0.20;99.90;;;;;;5072225;28;20516;-74
2022/02/27 06:54:05;;;;;;;10.70;1.90;;;0.30;99.90;;;;;;5073403;28;20382;-74
2022/02/27 06:56:31;;;;;;;8.25;2.15;;;0.30;99.90;;;;;;5073642;28;20036;-73
2022/02/27 06:58:56;;;;;;;8.13;1.70;;;0.30;99.90;;;;;;5072123;28;20075;-73
2022/02/27 07:01:22;;;;;;;9.20;2.13;;;0.40;99.90;;;;;;5072137;28;20024;-73
2022/02/27 07:03:47;;;;;;;13.73;2.30;;;0.30;99.90;;;;;;5073503;28;20029;-74
2022/02/27 07:06:13;;;;;;;7.10;2.00;;;0.40;99.90;;;;;;5073354;28;20367;-74
2022/02/27 07:08:38;;;;;;;12.43;2.72;;;0.50;99.90;;;;;;5073320;28;20021;-74
2022/02/27 07:11:04;;;;;;;10.50;1.55;;;0.60;99.90;;;;;;5072004;28;20023;-74
2022/02/27 07:13:30;;;;;;;13.13;2.28;;;0.70;99.90;;;;;;5072051;28;20100;-74
2022/02/27 07:15:56;;;;;;;10.43;3.05;;;0.80;99.90;;;;;;5073216;28;20074;-73
2022/02/27 07:18:21;;;;;;;13.13;2.15;;;0.90;99.90;;;;;;5073305;28;20028;-73
2022/02/27 07:20:47;;;;;;;7.63;1.85;;;0.90;99.90;;;;;;5071972;28;20029;-73
2022/02/27 07:23:12;;;;;;;8.25;2.53;;;1.00;99.90;;;;;;5072159;28;20473;-74
2022/02/27 07:25:38;;;;;;;6.25;1.20;;;1.10;99.90;;;;;;5073473;28;20527;-74
2022/02/27 07:28:05;;;;;;;9.07;1.15;;;1.20;99.90;;;;;;5073089;28;20017;-74
2022/02/27 07:30:30;;;;;;;12.25;1.90;;;1.30;99.90;;;;;;5073183;28;20425;-74
2022/02/27 07:32:56;;;;;;;6.18;1.85;;;1.40;99.90;;;;;;5073630;28;20020;-74
2022/02/27 07:35:21;;;;;;;9.02;1.50;;;1.50;99.90;;;;;;5072932;28;20048;-74
2022/02/27 07:37:47;;;;;;;10.75;1.25;;;1.70;99.90;;;;;;5073657;28;20032;-74
2022/02/27 07:40:13;;;;;;;5.88;1.45;;;1.80;99.90;;;;;;5073025;28;20492;-74
2022/02/27 07:42:39;;;;;;;8.77;1.70;;;2.00;99.90;;;;;;5072956;28;20024;-74
2022/02/27 07:45:05;;;;;;;5.65;0.95;;;2.10;99.90;;;;;;5071596;28;20016;-73
2022/02/27 07:47:33;;;;;;;7.22;1.65;;;2.20;99.90;;;;;;5071782;28;20482;-74
2022/02/27 07:49:58;;;;;;;8.30;1.17;;;2.30;99.90;;;;;;5073458;28;20040;-74
2022/02/27 07:52:24;;;;;;;9.18;1.40;;;2.40;99.90;;;;;;5074115;28;20020;-74
2022/02/27 07:54:49;;;;;;;7.43;1.10;;;2.50;99.90;;;;;;5075425;28;20028;-74
2022/02/27 07:57:15;;;;;;;5.60;0.65;;;2.60;99.90;;;;;;5076712;28;20025;-74
2022/02/27 07:59:40;;;;;;;6.60;1.10;;;2.70;99.90;;;;;;5076814;28;20021;-74
2022/02/27 08:02:06;;;;;;;8.15;0.50;;;2.80;99.90;;;;;;5076687;28;20027;-74
2022/02/27 08:04:32;;;;;;;6.78;0.63;;;2.90;99.90;;;;;;5076648;28;20519;-74
2022/02/27 08:06:58;;;;;;;14.25;2.05;;;3.00;99.90;;;;;;5076812;28;20073;-74
2022/02/27 08:09:24;;;;;;;3.95;0.57;;;3.10;99.90;;;;;;5076847;28;20100;-74
2022/02/27 08:11:50;;;;;;;7.22;0.65;;;3.20;99.90;;;;;;5076459;28;20485;-74
2022/02/27 08:14:15;;;;;;;7.25;0.93;;;3.30;99.90;;;;;;5076589;28;20032;-74
2022/02/27 08:16:41;;;;;;;5.00;0.88;;;3.50;99.90;;;;;;5075180;28;20024;-73
2022/02/27 08:19:06;;;;;;;9.15;0.70;;;3.50;99.90;;;;;;5076799;28;20036;-73
2022/02/27 08:21:32;;;;;;;6.50;0.70;;;3.60;99.90;;;;;;5076535;28;20032;-74
2022/02/27 08:23:57;;;;;;;4.35;0.68;;;3.70;99.90;;;;;;5074915;28;20086;-74
2022/02/27 08:26:24;;;;;;;9.65;0.98;;;3.90;99.90;;;;;;5074874;28;20381;-74
2022/02/27 08:28:49;;;;;;;6.53;0.40;;;4.10;99.90;;;;;;5076185;28;20028;-74
2022/02/27 08:31:15;;;;;;;5.88;1.02;;;4.20;99.90;;;;;;5074892;28;20017;-74
2022/02/27 08:33:40;;;;;;;5.60;0.50;;;4.30;99.90;;;;;;5074657;28;20030;-74
2022/02/27 08:36:06;;;;;;;3.72;0.55;;;4.50;99.90;;;;;;5075846;28;20063;-74
2022/02/27 08:38:32;;;;;;;9.48;1.17;;;4.60;99.90;;;;;;5075999;28;20123;-74
2022/02/27 08:40:57;;;;;;;9.57;0.50;;;4.70;99.90;;;;;;5075788;28;20024;-74
2022/02/27 08:43:23;;;;;;;6.18;0.65;;;4.80;99.90;;;;;;5075823;28;20025;-74
2022/02/27 08:45:49;;;;;;;6.35;0.38;;;4.90;99.90;;;;;;5075800;28;20020;-74
2022/02/27 08:48:15;;;;;;;4.47;0.40;;;5.00;99.90;;;;;;5076089;28;20039;-74
2022/02/27 08:50:40;;;;;;;7.93;1.40;;;5.10;99.90;;;;;;5075945;28;20029;-73
2022/02/27 08:53:06;;;;;;;5.47;0.60;;;5.20;99.90;;;;;;5075617;28;20436;-73
2022/02/27 08:55:31;;;;;;;6.97;0.40;;;5.20;99.90;;;;;;5075612;28;20101;-73
2022/02/27 08:57:57;;;;;;;4.43;0.52;;;5.30;99.90;;;;;;5074240;28;20024;-73
2022/02/27 09:00:23;;;;;;;4.95;0.77;;;5.40;99.90;;;;;;5075821;28;20386;-73
2022/02/27 09:02:48;;;;;;;3.83;0.52;;;5.50;99.90;;;;;;5075560;28;20347;-73
2022/02/27 09:05:14;;;;;;;2.47;0.45;;;5.60;99.90;;;;;;5074171;28;20082;-73
2022/02/27 09:07:40;;;;;;;6.30;1.10;;;5.70;99.90;;;;;;5075378;28;20028;-73
2022/02/27 09:10:08;;;;;;;9.75;0.93;;;5.70;99.90;;;;;;5075713;28;20025;-73
2022/02/27 09:12:34;;;;;;;6.90;0.70;;;5.80;99.90;;;;;;5074134;28;20031;-73
2022/02/27 09:15:00;;;;;;;6.35;0.38;;;5.90;99.90;;;;;;5074024;28;20324;-75
2022/02/27 09:17:26;;;;;;;4.82;0.60;;;5.90;99.20;;;;;;5075484;28;20017;-73
2022/02/27 09:19:51;;;;;;;7.97;0.70;;;6.10;99.30;;;;;;5075003;28;20110;-73
2022/02/27 09:22:17;;;;;;;7.15;1.02;;;6.10;98.60;;;;;;5075524;28;20056;-73
2022/02/27 09:24:42;;;;;;;2.70;0.30;;;6.10;97.80;;;;;;5073767;28;20020;-73
2022/02/27 09:27:08;;;;;;;2.78;0.40;;;6.20;98.30;;;;;;5075295;28;20074;-73
2022/02/27 09:29:33;;;;;;;3.80;0.57;;;6.20;95.80;;;;;;5073809;28;20051;-73
2022/02/27 09:31:59;;;;;;;5.60;0.25;;;6.30;95.00;;;;;;5075106;28;20024;-73
2022/02/27 09:34:25;;;;;;;4.28;0.73;;;6.40;94.50;;;;;;5074995;28;20024;-73
2022/02/27 09:36:50;;;;;;;1.65;0.38;;;6.40;94.00;;;;;;5074819;28;20028;-73
2022/02/27 09:39:16;;;;;;;2.30;0.40;;;6.50;93.50;;;;;;5074681;28;20069;-73
2022/02/27 09:41:41;;;;;;;5.82;0.55;;;6.60;93.50;;;;;;5075090;28;20016;-72
2022/02/27 09:44:08;;;;;;;3.95;0.30;;;6.60;99.90;;;;;;5074636;28;20449;-71
2022/02/27 09:46:36;;;;;;;2.30;0.32;;;6.80;96.80;;;;;;5073453;28;20031;-72
2022/02/27 09:49:02;;;;;;;5.38;0.75;;;6.90;96.10;;;;;;5075599;28;20025;-72
2022/02/27 09:51:28;;;;;;;3.75;1.02;;;7.10;93.00;;;;;;5074572;28;20466;-72
2022/02/27 09:53:53;;;;;;;5.68;0.45;;;7.20;96.70;;;;;;5074436;28;20016;-72
2022/02/27 09:56:19;;;;;;;4.57;0.43;;;7.30;98.60;;;;;;5074441;28;20039;-72
2022/02/27 09:58:46;;;;;;;7.20;0.60;;;7.50;94.40;;;;;;5074366;28;20032;-72
2022/02/27 10:01:14;;;;;;;5.70;0.43;;;7.50;93.00;;;;;;5074900;28;20542;-72
2022/02/27 10:03:40;;;;;;;5.55;0.43;;;7.50;92.10;;;;;;5074177;28;20469;-72
2022/02/27 10:06:08;;;;;;;6.07;0.63;;;7.50;92.40;;;;;;5074203;28;20020;-72
2022/02/27 10:08:37;;;;;;;5.57;0.50;;;7.60;92.60;;;;;;5073030;28;20483;-72
2022/02/27 10:11:03;;;;;;;2.15;0.85;;;7.70;91.40;;;;;;5074059;28;20028;-72
2022/02/27 10:13:36;;;;;;;4.38;1.08;;;7.60;91.30;;;;;;5074060;28;20141;-72
2022/02/27 10:16:07;;;;;;;4.95;0.40;;;7.70;88.50;;;;;;5071999;28;20027;-72
2022/02/27 10:19:00;;;;;;;5.97;0.85;;;7.60;91.00;;;;;;5074503;28;20029;-72
2022/02/27 10:21:30;;;;;;;2.28;0.45;;;7.60;91.30;;;;;;5071328;28;20032;-72
2022/02/27 10:24:01;;;;;;;2.53;0.63;;;7.60;91.40;;;;;;5074293;28;20099;-72
2022/02/27 10:26:28;;;;;;;2.33;0.70;;;7.80;91.10;;;;;;5074177;28;20084;-72
2022/02/27 10:29:07;;;;;;;4.90;0.77;;;7.80;91.00;;;;;;5072673;28;20020;-72
2022/02/27 10:31:37;;;;;;;3.03;0.25;;;7.90;92.20;;;;;;5074221;28;20095;-72
2022/02/27 10:34:17;;;;;;;2.88;0.57;;;8.00;91.00;;;;;;5073845;28;20047;-72
2022/02/27 10:37:06;;;;;;;4.03;0.73;;;8.00;90.20;;;;;;5072833;28;20035;-72
2022/02/27 10:39:43;;;;;;;2.47;0.50;;;8.10;85.20;;;;;;5074263;28;20055;-72
2022/02/27 10:42:13;;;;;;;2.28;0.20;;;8.10;83.00;;;;;;5073801;28;20077;-72
2022/02/27 10:44:44;;;;;;;3.97;0.38;;;8.20;85.50;;;;;;5073669;28;20391;-74
2022/02/27 10:47:19;;;;;;;2.25;0.15;;;8.20;80.10;;;;;;5073816;28;20066;-74
2022/02/27 10:49:46;;;;;;;4.10;0.22;;;8.30;78.20;;;;;;5072423;28;20421;-73
2022/02/27 10:52:22;;;;;;;1.90;0.25;;;8.20;75.50;;;;;;5074306;28;20427;-73
2022/02/27 10:54:53;;;;;;;1.88;0.13;;;8.20;78.60;;;;;;5073726;28;20032;-73
2022/02/27 10:57:46;;;;;;;4.88;0.52;;;8.20;79.50;;;;;;5072167;28;20021;-73
2022/02/27 11:00:12;;;;;;;2.15;0.08;;;8.20;79.20;;;;;;5073410;28;20033;-73
2022/02/27 11:02:39;;;;;;;2.28;0.43;;;8.30;72.60;;;;;;5073399;28;20027;-73
2022/02/27 11:05:10;;;;;;;3.92;0.93;;;8.20;73.20;;;;;;5073479;28;20024;-73
2022/02/27 11:07:37;;;;;;;3.70;0.30;;;8.20;73.80;;;;;;5072092;28;20025;-73
2022/02/27 11:10:04;;;;;;;2.60;0.20;;;8.30;72.60;;;;;;5072126;28;20016;-73
2022/02/27 11:12:34;;;;;;;2.53;0.57;;;8.30;73.60;;;;;;5072396;28;20109;-73
2022/02/27 11:15:00;;;;;;;2.85;0.10;;;8.30;72.60;;;;;;5074093;28;20021;-73
2022/02/27 11:17:26;;;;;;;4.43;0.82;;;8.30;71.80;;;;;;5072367;28;20028;-73
2022/02/27 11:19:52;;;;;;;1.77;0.20;;;8.30;74.60;;;;;;5072049;28;20024;-73
2022/02/27 11:22:19;;;;;;;4.82;0.80;;;8.40;73.10;;;;;;5073228;28;20067;-73
2022/02/27 11:24:47;;;;;;;1.88;0.30;;;8.50;77.10;;;;;;5073515;28;20108;-74
2022/02/27 11:27:14;;;;;;;3.00;0.40;;;8.70;74.30;;;;;;5074584;28;20020;-74
2022/02/27 11:29:41;;;;;;;9.40;1.85;;;8.80;72.90;;;;;;5077365;28;20020;-74
2022/02/27 11:32:09;;;;;;;10.32;1.95;;;8.90;71.90;;;;;;5077243;28;20033;-73
2022/02/27 11:34:40;;;;;;;2.55;0.25;;;9.00;70.70;;;;;;5075844;28;20039;-74
2022/02/27 11:37:06;;;;;;;4.30;0.30;;;9.00;71.20;;;;;;5077516;28;20036;-74
2022/02/27 11:42:46;;;;;;;5.65;0.28;;;9.00;70.00;;;;;;5078056;28;20039;-74
2022/02/27 11:45:11;;;;;;;4.05;0.50;;;9.00;70.70;;;;;;5077520;28;20543;-74
2022/02/27 11:47:50;;;;;;;3.50;0.65;;;9.10;71.70;;;;;;5077077;28;20025;-74
2022/02/27 11:50:23;;;;;;;;;;;9.10;71.40;;;;;;5078160;28;20029;-74
2022/02/27 11:52:48;;;;;;;1.98;0.30;;;9.20;70.20;;;;;;5077491;28;19905;-74
2022/02/27 11:55:43;;;;;;;4.00;0.38;;;9.20;70.00;;;;;;5077063;28;20036;-74
2022/02/27 11:58:27;;;;;;;2.75;0.20;;;9.30;71.10;;;;;;5076942;28;20052;-74
2022/02/27 12:00:52;;;;;;;5.90;0.70;;;9.40;73.70;;;;;;5075829;28;20070;-74
2022/02/27 12:03:30;;;;;;;4.22;1.15;;;9.60;70.10;;;;;;5075493;28;20024;-74
2022/02/27 12:06:04;;;;;;;2.28;0.30;;;9.70;70.00;;;;;;5076839;28;20024;-74
2022/02/27 12:08:43;;;;;;;2.40;0.40;;;9.80;67.60;;;;;;5076704;28;20111;-73
2022/02/27 12:11:33;;;;;;;;;;;9.80;68.40;;;;;;5076990;28;20024;-74
2022/02/27 12:14:01;;;;;;;5.25;0.50;;;9.70;65.20;;;;;;5065885;28;19958;-73
2022/02/27 12:16:46;;;;;;;8.77;0.93;;;9.90;69.00;;;;;;5076587;28;20115;-73
2022/02/27 12:19:22;;;;;;;4.00;0.73;;;10.00;66.50;;;;;;5076227;28;20077;-74
2022/02/27 12:21:50;;;;;;;4.03;0.40;;;10.10;65.00;;;;;;5076284;28;20021;-73
2022/02/27 12:24:23;;;;;;;1.87;0.80;;;10.10;64.70;;;;;;5076478;28;20028;-74
2022/02/27 12:26:50;;;;;;;4.20;0.35;;;10.20;66.20;;;;;;5076271;28;20043;-73
2022/02/27 12:29:32;;;;;;;1.40;0.43;;;10.40;66.50;;;;;;5076070;28;20017;-74
2022/02/27 12:32:13;;;;;;;3.53;0.30;;;10.70;66.70;;;;;;5076163;28;20104;-74
2022/02/27 12:34:41;;;;;;;2.15;0.38;;;10.70;64.20;;;;;;5076214;28;20044;-74
2022/02/27 12:37:08;;;;;;;2.17;0.30;;;10.80;63.80;;;;;;5074960;28;20066;-74
2022/02/27 12:39:41;;;;;;;4.63;0.38;;;11.00;62.30;;;;;;5075743;28;20535;-74
2022/02/27 12:42:08;;;;;;;6.57;0.75;;;11.10;62.60;;;;;;5076475;28;20429;-74
2022/02/27 12:44:40;;;;;;;3.85;0.32;;;11.00;61.00;;;;;;5076360;28;20017;-74
2022/02/27 12:47:08;;;;;;;5.22;0.70;;;11.00;63.10;;;;;;5075808;28;20382;-74
2022/02/27 12:52:29;;;;;;;3.13;0.30;;;11.00;62.10;;;;;;5076506;28;20806;-74
2022/02/27 12:54:56;;;;;;;1.48;0.38;;;11.00;60.50;;;;;;5075642;28;20019;-74
2022/02/27 12:57:24;;;;;;;6.30;0.95;;;11.00;60.20;;;;;;5076160;28;20099;-74